createdAt,value
2022-08-05T00:01:51.862Z,78.20
2022-08-05T00:06:57.817Z,79.68
2022-08-05T00:12:03.831Z,81.25
2022-08-05T00:17:19.447Z,82.97
2022-08-05T00:22:25.209Z,86.49
2022-08-05T00:27:36.437Z,92.79
2022-08-05T00:32:44.368Z,98.76
2022-08-05T00:37:52.852Z,100.00
2022-08-05T00:43:00.934Z,100.00
2022-08-05T00:48:10.108Z,100.00
2022-08-05T00:54:00.520Z,100.00
2022-08-05T00:58:42.484Z,100.00
2022-08-05T01:03:52.890Z,100.00
2022-08-05T01:08:58.094Z,100.00
2022-08-05T01:14:15.624Z,100.00
2022-08-05T01:19:56.388Z,100.00
2022-08-05T01:25:15.667Z,100.00
2022-08-05T01:30:34.881Z,100.00
2022-08-05T01:35:51.131Z,100.00
2022-08-05T01:41:01.913Z,100.00
2022-08-05T01:46:16.669Z,100.00
2022-08-05T01:51:38.594Z,100.00
2022-08-05T01:58:29.305Z,100.00
2022-08-05T02:02:16.002Z,100.00
2022-08-05T02:07:22.886Z,100.00
2022-08-05T02:12:37.777Z,100.00
2022-08-05T02:18:30.717Z,100.00
2022-08-05T02:23:20.509Z,100.00
2022-08-05T02:28:32.984Z,100.00
2022-08-05T02:33:45.556Z,100.00
2022-08-05T02:38:55.918Z,100.00
2022-08-05T02:44:06.875Z,100.00
2022-08-05T02:49:22.395Z,100.00
2022-08-05T02:54:35.668Z,100.00
2022-08-05T02:59:50.697Z,100.00
2022-08-05T03:06:56.806Z,100.00
2022-08-05T03:11:55.692Z,100.00
2022-08-05T03:16:15.804Z,100.00
2022-08-05T03:21:20.825Z,100.00
2022-08-05T03:26:30.927Z,100.00
2022-08-05T03:31:57.207Z,100.00
2022-08-05T03:37:03.120Z,100.00
2022-08-05T03:42:10.809Z,100.00
2022-08-05T03:47:15.911Z,100.00
2022-08-05T03:52:38.146Z,100.00
2022-08-05T03:57:56.285Z,100.00
2022-08-05T04:03:04.588Z,100.00
2022-08-05T04:08:14.889Z,100.00
2022-08-05T04:13:50.234Z,100.00
2022-08-05T04:18:57.698Z,100.00
2022-08-05T04:24:06.342Z,100.00
2022-08-05T04:29:16.546Z,100.00
2022-08-05T04:34:32.255Z,100.00
2022-08-05T04:39:39.125Z,100.00
2022-08-05T04:44:46.776Z,100.00
2022-08-05T04:50:02.988Z,100.00
2022-08-05T04:55:16.757Z,100.00
2022-08-05T05:00:30.083Z,100.00
2022-08-05T05:06:40.163Z,100.00
2022-08-05T05:11:01.230Z,100.00
2022-08-05T05:16:09.379Z,100.00
2022-08-05T05:21:14.278Z,100.00
2022-08-05T05:26:19.500Z,100.00
2022-08-05T05:36:40.189Z,100.00
2022-08-05T05:41:45.029Z,100.00
2022-08-05T05:47:04.261Z,100.00
2022-08-05T05:52:12.982Z,100.00
2022-08-05T05:57:42.625Z,100.00
2022-08-05T06:02:50.846Z,100.00
2022-08-05T06:07:58.003Z,100.00
2022-08-05T06:13:07.727Z,100.00
2022-08-05T06:18:16.178Z,100.00
2022-08-05T06:23:22.483Z,100.00
2022-08-05T06:28:28.557Z,100.00
2022-08-05T06:34:07.298Z,100.00
2022-08-05T06:39:01.205Z,100.00
2022-08-05T06:44:06.412Z,100.00
2022-08-05T06:49:13.855Z,100.00
2022-08-05T06:54:19.048Z,100.00
2022-08-05T06:59:24.333Z,100.00
2022-08-05T07:04:32.003Z,100.00
2022-08-05T07:09:40.617Z,100.00
2022-08-05T07:15:00.674Z,100.00
2022-08-05T07:20:32.190Z,100.00
2022-08-05T07:25:54.908Z,100.00
2022-08-05T07:30:58.925Z,100.00
2022-08-05T07:36:20.806Z,100.00
2022-08-05T07:42:12.847Z,100.00
2022-08-05T07:46:52.587Z,100.00
2022-08-05T07:52:01.374Z,100.00
2022-08-05T07:57:16.969Z,100.00
2022-08-05T08:03:14.554Z,100.00
2022-08-05T08:08:00.809Z,100.00
2022-08-05T08:13:05.911Z,100.00
2022-08-05T08:18:14.376Z,100.00
2022-08-05T08:24:02.598Z,100.00
2022-08-05T08:28:55.297Z,100.00
2022-08-05T08:34:04.674Z,100.00
2022-08-05T08:39:15.435Z,100.00
2022-08-05T08:45:18.936Z,100.00
2022-08-05T08:50:13.057Z,100.00
2022-08-05T08:55:32.024Z,95.01
2022-08-05T09:00:45.389Z,97.01
2022-08-05T09:06:08.971Z,92.52
2022-08-05T09:11:18.981Z,85.03
2022-08-05T09:16:48.714Z,84.86
2022-08-05T09:22:18.514Z,86.21
2022-08-05T09:28:04.147Z,83.40
2022-08-05T09:33:04.981Z,80.80
2022-08-05T09:38:12.580Z,76.92
2022-08-05T09:43:40.636Z,69.20
2022-08-05T09:49:06.883Z,67.76
2022-08-05T09:54:12.220Z,67.85
2022-08-05T09:59:27.978Z,68.90
2022-08-05T10:04:39.801Z,66.94
2022-08-05T10:10:04.273Z,63.10
2022-08-05T10:15:28.774Z,66.84
2022-08-05T10:20:41.997Z,65.75
2022-08-05T10:25:47.329Z,64.12
2022-08-05T10:32:51.665Z,63.21
2022-08-05T10:36:26.141Z,61.31
2022-08-05T10:41:45.165Z,60.69
2022-08-05T10:46:56.996Z,59.57
2022-08-05T10:52:05.270Z,58.44
2022-08-05T10:57:16.137Z,55.71
2022-08-05T11:02:37.705Z,56.86
2022-08-05T11:08:12.736Z,53.69
2022-08-05T11:13:54.839Z,51.19
2022-08-05T11:20:11.215Z,50.48
2022-08-05T11:26:04.761Z,50.62
2022-08-05T11:31:57.115Z,50.51
2022-08-05T11:36:54.022Z,49.84
2022-08-05T11:42:02.385Z,48.73
2022-08-05T11:47:15.153Z,48.52
2022-08-05T11:52:31.047Z,47.49
2022-08-05T11:58:08.121Z,47.00
2022-08-05T12:03:01.456Z,46.29
2022-08-05T12:08:11.546Z,45.84
2022-08-05T12:13:47.829Z,45.26
2022-08-05T12:18:52.466Z,44.11
2022-08-05T12:24:04.982Z,44.73
2022-08-05T12:29:16.146Z,44.45
2022-08-05T12:34:23.705Z,45.51
2022-08-05T12:39:38.782Z,45.99
2022-08-05T12:44:44.745Z,46.55
2022-08-05T12:50:03.725Z,46.66
2022-08-05T12:55:26.186Z,46.80
2022-08-05T13:02:03.767Z,46.89
2022-08-05T13:05:59.138Z,47.39
2022-08-05T13:11:09.058Z,46.71
2022-08-05T13:16:17.257Z,46.80
2022-08-05T13:21:22.520Z,46.67
2022-08-05T13:26:36.267Z,47.56
2022-08-05T13:32:04.931Z,47.90
2022-08-05T13:37:08.864Z,52.26
2022-08-05T13:42:16.610Z,54.81
2022-08-05T13:47:36.006Z,56.06
2022-08-05T13:52:49.869Z,56.37
2022-08-05T13:57:57.754Z,57.97
2022-08-05T14:03:04.219Z,59.18
2022-08-05T14:08:20.328Z,59.95
2022-08-05T14:13:34.855Z,55.67
2022-08-05T14:18:40.176Z,54.40
2022-08-05T14:23:46.475Z,51.36
2022-08-05T14:28:55.684Z,49.87
2022-08-05T14:34:01.751Z,49.20
2022-08-05T14:39:10.894Z,51.23
2022-08-05T14:44:20.186Z,50.41
2022-08-05T14:49:25.843Z,50.47
2022-08-05T14:54:52.816Z,51.78
2022-08-05T15:00:00.994Z,52.28
2022-08-05T15:05:08.772Z,52.56
2022-08-05T15:10:18.740Z,53.89
2022-08-05T15:15:55.866Z,56.45
2022-08-05T15:21:07.536Z,55.23
2022-08-05T15:26:13.199Z,53.50
2022-08-05T15:31:21.152Z,52.79
2022-08-05T15:36:27.475Z,54.30
2022-08-05T15:41:57.793Z,58.42
2022-08-05T15:47:02.197Z,63.85
2022-08-05T15:52:15.823Z,94.47
2022-08-05T15:57:23.225Z,100.00
2022-08-05T16:02:32.271Z,100.00
2022-08-05T16:07:38.748Z,100.00
2022-08-05T16:12:52.981Z,100.00
2022-08-05T16:18:04.323Z,100.00
2022-08-05T16:23:15.568Z,100.00
2022-08-05T16:28:29.265Z,100.00
2022-08-05T16:33:41.243Z,100.00
2022-08-05T16:38:54.712Z,100.00
2022-08-05T16:44:00.951Z,100.00
2022-08-05T16:49:12.452Z,100.00
2022-08-05T16:54:32.929Z,100.00
2022-08-05T17:00:01.298Z,100.00
2022-08-05T17:05:08.762Z,100.00
2022-08-05T17:10:14.453Z,100.00
2022-08-05T17:15:19.914Z,100.00
2022-08-05T17:20:27.666Z,100.00
2022-08-05T17:25:39.939Z,100.00
2022-08-05T17:30:52.122Z,100.00
2022-08-05T17:36:07.661Z,100.00
2022-08-05T17:42:16.605Z,100.00
2022-08-05T17:46:40.656Z,100.00
2022-08-05T17:51:50.116Z,100.00
2022-08-05T17:56:55.111Z,100.00
2022-08-05T18:02:03.487Z,100.00
2022-08-05T18:07:18.433Z,100.00
2022-08-05T18:12:25.781Z,100.00
2022-08-05T18:18:00.831Z,100.00
2022-08-05T18:23:09.217Z,100.00
2022-08-05T18:28:17.908Z,100.00
2022-08-05T18:33:28.405Z,100.00
2022-08-05T18:38:57.583Z,100.00
2022-08-05T18:44:06.537Z,100.00
2022-08-05T18:49:30.713Z,100.00
2022-08-05T18:54:51.811Z,100.00
2022-08-05T19:00:03.204Z,100.00
2022-08-05T19:06:05.450Z,100.00
2022-08-05T19:10:37.769Z,100.00
2022-08-05T19:15:58.854Z,100.00
2022-08-05T19:21:05.372Z,100.00
2022-08-05T19:26:16.686Z,100.00
2022-08-05T19:31:22.964Z,100.00
2022-08-05T19:36:29.374Z,100.00
2022-08-05T19:42:06.892Z,100.00
2022-08-05T19:47:03.062Z,100.00
2022-08-05T19:52:30.728Z,100.00
2022-08-05T19:57:49.145Z,100.00
2022-08-05T20:03:08.452Z,100.00
2022-08-05T20:08:15.270Z,100.00
2022-08-05T20:13:54.768Z,100.00
2022-08-05T20:18:55.567Z,100.00
2022-08-05T20:24:01.372Z,100.00
2022-08-05T20:29:27.329Z,100.00
2022-08-05T20:34:33.126Z,100.00
2022-08-05T20:39:39.307Z,100.00
2022-08-05T20:44:48.506Z,100.00
2022-08-05T20:49:53.436Z,100.00
2022-08-05T20:55:56.532Z,100.00
2022-08-05T21:00:49.712Z,100.00
2022-08-05T21:05:55.438Z,100.00
2022-08-05T21:11:00.701Z,100.00
2022-08-05T21:16:17.397Z,100.00
2022-08-05T21:21:24.475Z,100.00
2022-08-05T21:26:29.599Z,100.00
2022-08-05T21:31:41.590Z,100.00
2022-08-05T21:36:46.773Z,100.00
2022-08-05T21:42:01.159Z,100.00
2022-08-05T21:47:32.715Z,100.00
2022-08-05T21:52:34.168Z,100.00
2022-08-05T21:57:42.758Z,100.00
2022-08-05T22:02:50.378Z,100.00
2022-08-05T22:07:58.812Z,100.00
2022-08-05T22:14:18.470Z,100.00
2022-08-05T22:18:36.487Z,100.00
2022-08-05T22:24:02.764Z,100.00
2022-08-05T22:29:09.493Z,100.00
2022-08-05T22:34:20.092Z,100.00
2022-08-05T22:39:33.926Z,100.00
2022-08-05T22:44:39.573Z,100.00
2022-08-05T22:50:20.156Z,100.00
2022-08-05T22:55:19.021Z,100.00
2022-08-05T23:00:26.662Z,100.00
2022-08-05T23:05:35.897Z,100.00
2022-08-05T23:10:43.010Z,100.00
2022-08-05T23:15:50.265Z,100.00
2022-08-05T23:20:57.839Z,100.00
2022-08-05T23:26:03.158Z,100.00
2022-08-05T23:31:16.942Z,100.00
2022-08-05T23:36:28.328Z,100.00
2022-08-05T23:41:48.770Z,100.00
2022-08-05T23:46:53.740Z,100.00
2022-08-05T23:52:16.298Z,100.00
2022-08-05T23:57:21.303Z,100.00
